Skip Navigation Links Skip Navigation Links

Current Weather

Thomaston-Upson County, Thomaston, Ga.

For information only: do not use for flight planning or navigation.
Latest weather
Observation time Tuesday, January 26, 2021 6:35 PM EST
Local time Tuesday, January 26, 2021 6:54 PM EST
Flight conditions Visual Meteorological Conditions
Winds
Wind speed calm
Visibility 10 mi.
Sky condition
Ceiling 7,000 ft. broken clouds
Cloud layer broken clouds 7,000 ft.
Cloud layer broken clouds 12,000 ft.
Temperature 59°F
Dewpoint 52°F
Altimeter 29.94 in.Hg
Derived measurements
Relative humidity 77%
Density altitude 959 ft.
Remarks
Fully automated report.
Automated weather observing station with precipitation discriminator.
Lightning observed distant south and southwest.
METAR KOPN 262335Z AUTO 00000KT 10SM BKN070 BKN120 15/11 A2994 RMK AO2 LTG DSNT S AND SW

Settings

Location code

InnerDrive.Weather 4.0.6770.0 Release CLR 4.0.30319.42000
Copyright ©2018 Inner Drive Technology. All rights reserved. Portions Copyright ©1986-2018 David Braverman.

Find weather

Site navigation


Skip Navigation Links

Place info

Page info

PayPal - The safer, easier way to pay online!

Return home.

Copyright ©2021 Inner Drive Technology. Purveyors of fine, hand-crafted computer software. Page printed 2021-01-26T23:54:58 UTC.